Time;durP1;ratioP1;P1;durP2;ratioP2;P2;SDS_P1;SDS_P2;PMS_P1;PMS_P2;Temp;Humidity;BMP_temperature;BMP_pressure;BME280_temperature;BME280_humidity;BME280_pressure;Samples;Min_cycle;Max_cycle;Signal;HPM_P1;HPM_P2
2021/01/03 00:00:50;;;;;;;53.60;24.08;;;5.00;99.90;;;;;;4171247;28;20037;-83
2021/01/03 00:02:52;;;;;;;50.40;24.30;;;5.10;99.90;;;;;;4164354;28;20172;-83
2021/01/03 00:04:52;;;;;;;56.72;25.25;;;5.00;99.90;;;;;;4159250;28;20030;-83
2021/01/03 00:06:54;;;;;;;51.75;24.35;;;5.00;99.90;;;;;;4185804;28;25079;-83
2021/01/03 00:08:55;;;;;;;50.27;23.83;;;5.00;99.90;;;;;;4162557;28;20381;-83
2021/01/03 00:11:03;;;;;;;55.60;24.55;;;5.00;99.90;;;;;;4162578;28;20025;-83
2021/01/03 00:13:04;;;;;;;52.50;24.90;;;5.00;99.90;;;;;;4149747;28;20338;-83
2021/01/03 00:15:09;;;;;;;51.97;25.02;;;5.00;99.90;;;;;;4180062;28;20033;-83
2021/01/03 00:17:12;;;;;;;49.38;23.95;;;5.00;99.90;;;;;;4169611;28;20109;-83
2021/01/03 00:19:23;;;;;;;52.97;23.80;;;5.00;99.90;;;;;;4155027;28;20117;-83
2021/01/03 00:21:32;;;;;;;52.30;25.05;;;5.00;99.90;;;;;;4176901;28;20032;-83
2021/01/03 00:23:33;;;;;;;48.20;23.10;;;5.00;99.90;;;;;;4165831;28;20042;-83
2021/01/03 00:25:34;;;;;;;50.40;23.30;;;5.00;99.90;;;;;;4154941;28;20120;-83
2021/01/03 00:27:35;;;;;;;51.42;25.23;;;5.00;99.90;;;;;;4174773;28;20029;-83
2021/01/03 00:29:36;;;;;;;51.33;23.88;;;5.00;99.90;;;;;;4155242;28;20066;-83
2021/01/03 00:31:40;;;;;;;48.97;23.27;;;5.00;99.90;;;;;;4150753;28;20026;-83
2021/01/03 00:33:41;;;;;;;49.92;22.80;;;5.00;99.90;;;;;;4154327;28;20126;-83
2021/01/03 00:35:41;;;;;;;55.17;25.00;;;5.00;99.90;;;;;;4182005;28;20147;-83
2021/01/03 00:37:44;;;;;;;50.90;24.50;;;5.10;99.90;;;;;;4153688;28;20109;-83
2021/01/03 00:39:44;;;;;;;54.60;27.20;;;5.00;99.90;;;;;;4164968;28;20040;-83
2021/01/03 00:41:50;;;;;;;57.35;26.40;;;5.00;99.90;;;;;;4178795;28;20028;-83
2021/01/03 00:43:53;;;;;;;54.55;24.40;;;5.00;99.90;;;;;;4179089;28;20037;-83
2021/01/03 00:45:53;;;;;;;52.03;25.55;;;5.10;99.90;;;;;;4159498;28;20061;-83
2021/01/03 00:47:54;;;;;;;50.72;24.02;;;5.10;99.90;;;;;;4158403;28;20367;-83
2021/01/03 00:49:55;;;;;;;50.80;23.45;;;5.00;99.90;;;;;;4175485;28;20049;-83
2021/01/03 00:51:56;;;;;;;51.65;23.85;;;5.00;99.90;;;;;;4170227;28;20068;-83
2021/01/03 00:53:57;;;;;;;51.45;24.35;;;5.10;99.90;;;;;;4166993;28;20033;-83
2021/01/03 00:55:57;;;;;;;54.03;25.40;;;5.00;99.90;;;;;;4152584;28;20746;-82
2021/01/03 00:57:58;;;;;;;53.45;24.77;;;5.10;99.90;;;;;;4166455;28;20041;-83
2021/01/03 00:59:59;;;;;;;52.83;24.20;;;5.00;99.90;;;;;;4153459;28;20042;-83
2021/01/03 01:02:00;;;;;;;56.55;25.27;;;5.10;99.90;;;;;;4156974;28;20053;-83
2021/01/03 01:04:01;;;;;;;57.10;26.43;;;5.00;99.90;;;;;;4176332;28;20045;-83
2021/01/03 01:06:02;;;;;;;58.03;25.50;;;5.00;99.90;;;;;;4174654;28;20079;-83
2021/01/03 01:08:03;;;;;;;59.90;25.20;;;5.00;99.90;;;;;;4173965;28;20033;-83
2021/01/03 01:10:08;;;;;;;52.55;25.40;;;5.00;99.90;;;;;;4174778;28;20035;-84
2021/01/03 01:12:09;;;;;;;55.63;25.30;;;5.00;99.90;;;;;;4155470;28;20203;-83
2021/01/03 01:14:10;;;;;;;55.00;25.42;;;5.00;99.90;;;;;;4171426;28;20474;-83
2021/01/03 01:16:11;;;;;;;50.90;23.63;;;5.00;99.90;;;;;;4175084;28;20029;-83
2021/01/03 01:18:12;;;;;;;54.35;25.23;;;5.00;99.90;;;;;;4169089;28;20037;-83
2021/01/03 01:20:13;;;;;;;50.50;24.25;;;5.00;99.90;;;;;;4179930;28;20067;-83
2021/01/03 01:22:14;;;;;;;50.38;24.67;;;5.00;99.90;;;;;;4164347;28;20366;-83
2021/01/03 01:24:21;;;;;;;50.38;23.45;;;5.00;99.90;;;;;;4176104;28;20029;-83
2021/01/03 01:26:23;;;;;;;52.10;25.17;;;5.00;99.90;;;;;;4157079;28;20053;-83
2021/01/03 01:28:24;;;;;;;53.70;25.08;;;5.00;99.90;;;;;;4155728;28;20034;-83
2021/01/03 01:30:28;;;;;;;52.95;24.98;;;5.00;99.90;;;;;;4170267;28;20042;-83
2021/01/03 01:32:29;;;;;;;54.05;26.20;;;5.10;99.90;;;;;;4164833;28;20029;-83
2021/01/03 01:34:30;;;;;;;49.63;23.67;;;5.00;99.90;;;;;;4154616;28;20477;-83
2021/01/03 01:36:30;;;;;;;50.33;24.17;;;5.00;99.90;;;;;;4162419;28;20104;-83
2021/01/03 01:38:31;;;;;;;53.70;25.05;;;5.10;99.90;;;;;;4148623;28;20056;-83
2021/01/03 01:40:35;;;;;;;53.63;25.15;;;5.00;99.90;;;;;;4153952;28;20393;-83
2021/01/03 01:42:36;;;;;;;53.90;24.42;;;5.00;99.90;;;;;;4177238;28;20037;-83
2021/01/03 01:44:36;;;;;;;62.25;27.15;;;5.00;99.90;;;;;;4175571;28;20029;-83
2021/01/03 01:46:42;;;;;;;59.15;26.80;;;5.00;99.90;;;;;;4146439;28;20086;-83
2021/01/03 01:48:46;;;;;;;52.33;25.45;;;5.00;99.90;;;;;;4150375;28;20554;-83
2021/01/03 01:50:54;;;;;;;61.83;27.42;;;5.00;99.90;;;;;;4171433;28;20045;-83
2021/01/03 01:52:57;;;;;;;59.83;26.20;;;5.00;99.90;;;;;;4158318;28;20042;-83
2021/01/03 01:55:07;;;;;;;52.05;25.08;;;5.00;99.90;;;;;;4154885;28;20057;-83
2021/01/03 01:57:26;;;;;;;55.17;26.17;;;5.00;99.90;;;;;;4147693;28;20026;-83
2021/01/03 01:59:46;;;;;;;59.70;27.50;;;5.00;99.90;;;;;;4169783;28;20036;-83
2021/01/03 02:02:00;;;;;;;57.65;26.80;;;5.00;99.90;;;;;;4162000;28;20421;-83
2021/01/03 02:04:12;;;;;;;56.03;25.88;;;5.00;99.90;;;;;;4152793;28;20030;-83
2021/01/03 02:06:19;;;;;;;59.13;27.02;;;5.00;99.90;;;;;;4166928;28;20033;-83
2021/01/03 02:08:32;;;;;;;54.47;25.30;;;5.00;99.90;;;;;;4177243;28;20049;-83
2021/01/03 02:10:40;;;;;;;47.00;23.77;;;5.00;99.90;;;;;;4145843;28;20173;-83
2021/01/03 02:12:46;;;;;;;57.72;26.70;;;5.00;99.90;;;;;;4157379;28;20033;-83
2021/01/03 02:14:46;;;;;;;52.10;24.73;;;5.00;99.90;;;;;;4181407;28;20060;-83
2021/01/03 02:16:47;;;;;;;60.53;27.00;;;4.90;99.90;;;;;;4160364;28;20033;-83
2021/01/03 02:18:53;;;;;;;54.67;25.95;;;5.00;99.90;;;;;;4171457;28;20047;-83
2021/01/03 02:21:24;;;;;;;53.08;25.42;;;5.00;99.90;;;;;;4148890;28;20748;-83
2021/01/03 02:23:59;;;;;;;60.83;26.65;;;5.00;99.90;;;;;;4163481;28;20030;-83
2021/01/03 02:26:07;;;;;;;56.55;26.88;;;5.00;99.90;;;;;;4160990;28;20547;-83
2021/01/03 02:28:22;;;;;;;53.28;25.90;;;5.00;99.90;;;;;;4178460;28;20029;-83
2021/01/03 02:30:25;;;;;;;55.03;25.40;;;5.00;99.90;;;;;;4156635;28;20512;-83
2021/01/03 02:32:29;;;;;;;51.20;24.67;;;5.00;99.90;;;;;;4149178;28;20050;-83
2021/01/03 02:34:43;;;;;;;55.65;26.00;;;5.00;99.90;;;;;;4148703;28;20049;-83
2021/01/03 02:36:50;;;;;;;59.75;26.63;;;5.00;99.90;;;;;;4179457;28;20036;-83
2021/01/03 02:39:29;;;;;;;55.45;26.15;;;5.00;99.90;;;;;;4148087;28;20046;-83
2021/01/03 02:41:30;;;;;;;56.63;25.65;;;5.00;99.90;;;;;;4168119;28;20196;-83
2021/01/03 02:43:32;;;;;;;58.65;28.70;;;4.90;99.90;;;;;;4154429;28;20045;-83
2021/01/03 02:45:45;;;;;;;62.45;28.00;;;4.90;99.90;;;;;;4165022;28;20545;-83
2021/01/03 02:47:47;;;;;;;54.50;26.40;;;4.90;99.90;;;;;;4174395;28;20037;-83
2021/01/03 02:49:48;;;;;;;56.70;27.10;;;4.90;99.90;;;;;;4164144;28;20057;-83
2021/01/03 02:51:49;;;;;;;52.53;25.98;;;4.90;99.90;;;;;;4173949;28;20101;-83
2021/01/03 02:53:50;;;;;;;51.53;25.08;;;4.90;99.90;;;;;;4159962;28;20060;-83
2021/01/03 02:55:51;;;;;;;52.22;25.52;;;4.90;99.90;;;;;;4155354;28;20029;-82
2021/01/03 02:57:53;;;;;;;53.75;25.98;;;4.90;99.90;;;;;;4168437;28;20463;-82
2021/01/03 02:59:54;;;;;;;;;;;4.90;99.90;;;;;;4154487;28;20603;-82
2021/01/03 03:01:55;;;;;;;61.22;27.23;;;4.90;99.90;;;;;;4167345;28;19917;-82
2021/01/03 03:03:56;;;;;;;60.60;27.35;;;4.90;99.90;;;;;;4154692;28;20030;-82
2021/01/03 03:05:56;;;;;;;56.80;25.98;;;4.90;99.90;;;;;;4162548;28;20481;-82
2021/01/03 03:07:58;;;;;;;59.95;27.48;;;4.90;99.90;;;;;;4155780;28;20042;-82
2021/01/03 03:09:59;;;;;;;62.03;28.25;;;4.90;99.90;;;;;;4163616;28;20033;-82
2021/01/03 03:11:59;;;;;;;56.38;26.15;;;4.90;99.90;;;;;;4170797;28;20144;-82
2021/01/03 03:14:00;;;;;;;57.22;27.30;;;4.90;99.90;;;;;;4148411;28;20042;-82
2021/01/03 03:16:00;;;;;;;62.60;28.67;;;4.90;99.90;;;;;;4171859;28;20025;-82
2021/01/03 03:18:02;;;;;;;55.78;26.33;;;4.90;99.90;;;;;;4154066;28;20076;-82
2021/01/03 03:20:04;;;;;;;60.03;26.60;;;4.90;99.90;;;;;;4170600;28;20128;-82
2021/01/03 03:22:05;;;;;;;;;;;4.90;99.90;;;;;;4157926;28;20387;-82
2021/01/03 03:24:06;;;;;;;58.63;26.98;;;4.90;99.90;;;;;;4174491;28;19920;-82
2021/01/03 03:26:16;;;;;;;55.25;26.52;;;4.90;99.90;;;;;;4154051;28;20041;-82
2021/01/03 03:28:17;;;;;;;52.78;25.50;;;4.90;99.90;;;;;;4168149;28;20393;-82
2021/01/03 03:30:20;;;;;;;56.72;24.75;;;4.90;99.90;;;;;;4170076;28;20033;-82
2021/01/03 03:32:20;;;;;;;51.78;24.92;;;4.90;99.90;;;;;;4164083;28;20025;-82
2021/01/03 03:34:22;;;;;;;48.53;23.75;;;4.90;99.90;;;;;;4166923;28;20045;-82
2021/01/03 03:36:23;;;;;;;52.85;24.95;;;5.00;99.90;;;;;;4170538;28;20025;-82
2021/01/03 03:38:39;;;;;;;54.10;26.05;;;5.00;99.90;;;;;;4160830;28;20163;-82
2021/01/03 03:40:40;;;;;;;49.33;25.05;;;5.00;99.90;;;;;;4173798;28;20076;-82
2021/01/03 03:42:40;;;;;;;55.58;26.25;;;5.00;99.90;;;;;;4178771;28;20148;-82
2021/01/03 03:44:43;;;;;;;53.78;26.33;;;5.00;99.90;;;;;;4174868;28;20026;-82
2021/01/03 03:46:50;;;;;;;54.60;26.05;;;5.00;99.90;;;;;;4154944;28;20026;-82
2021/01/03 03:48:51;;;;;;;55.33;26.77;;;5.00;99.90;;;;;;4170601;28;20038;-82
2021/01/03 03:50:51;;;;;;;54.65;26.90;;;5.00;99.90;;;;;;4174128;28;20043;-82
2021/01/03 03:52:52;;;;;;;58.45;28.00;;;5.00;99.90;;;;;;4164485;28;20402;-82
2021/01/03 03:54:53;;;;;;;60.88;29.23;;;5.00;99.90;;;;;;4171669;28;20067;-82
2021/01/03 03:56:59;;;;;;;57.47;26.33;;;4.90;99.90;;;;;;4162007;28;20076;-82
2021/01/03 03:59:00;;;;;;;54.75;27.00;;;4.90;99.90;;;;;;4191201;28;20037;-82
2021/01/03 04:01:01;;;;;;;58.08;28.02;;;5.00;99.90;;;;;;4165712;28;20048;-82
2021/01/03 04:03:01;;;;;;;57.13;26.83;;;5.00;99.90;;;;;;4149891;28;20044;-82
2021/01/03 04:05:03;;;;;;;59.00;28.08;;;4.90;99.90;;;;;;4169611;28;20491;-82
2021/01/03 04:07:04;;;;;;;52.47;27.80;;;4.90;99.90;;;;;;4161457;28;20049;-82
2021/01/03 04:09:06;;;;;;;54.17;27.35;;;5.00;99.90;;;;;;4150694;28;20099;-82
2021/01/03 04:11:06;;;;;;;55.65;28.75;;;4.90;99.90;;;;;;4160693;28;20091;-82
2021/01/03 04:13:11;;;;;;;56.03;27.67;;;4.90;99.90;;;;;;4164955;28;20033;-82
2021/01/03 04:15:17;;;;;;;55.67;27.58;;;4.90;99.90;;;;;;4159903;28;20045;-82
2021/01/03 04:17:18;;;;;;;57.33;28.48;;;4.90;99.90;;;;;;4171232;28;20504;-83
2021/01/03 04:19:20;;;;;;;56.80;29.60;;;4.90;99.90;;;;;;4154982;28;20029;-83
2021/01/03 04:21:20;;;;;;;54.78;28.05;;;4.90;99.90;;;;;;4168744;28;20045;-83
2021/01/03 04:23:21;;;;;;;55.00;27.83;;;4.90;99.90;;;;;;4163033;28;20037;-83
2021/01/03 04:25:22;;;;;;;53.47;26.67;;;4.90;99.90;;;;;;4156164;28;20026;-82
2021/01/03 04:27:22;;;;;;;53.90;26.45;;;4.90;99.90;;;;;;4165473;28;20040;-82
2021/01/03 04:29:24;;;;;;;52.65;26.48;;;4.90;99.90;;;;;;4144408;28;20030;-82
2021/01/03 04:31:24;;;;;;;60.85;29.45;;;4.90;99.90;;;;;;4137299;28;20030;-82
2021/01/03 04:33:25;;;;;;;58.25;28.40;;;4.90;99.90;;;;;;4136662;28;20036;-82
2021/01/03 04:35:25;;;;;;;53.42;28.65;;;4.90;99.90;;;;;;4163529;28;20040;-82
2021/01/03 04:37:26;;;;;;;57.92;28.02;;;4.90;99.90;;;;;;4156915;28;20165;-82
2021/01/03 04:39:28;;;;;;;52.55;26.77;;;4.90;99.90;;;;;;4154013;28;20773;-82
2021/01/03 04:41:34;;;;;;;59.38;27.27;;;4.90;99.90;;;;;;4163876;28;20079;-82
2021/01/03 04:43:35;;;;;;;53.45;27.65;;;4.90;99.90;;;;;;4144077;28;20095;-82
2021/01/03 04:45:41;;;;;;;53.45;27.73;;;4.90;99.90;;;;;;4139937;28;20485;-82
2021/01/03 04:48:00;;;;;;;56.53;28.08;;;4.90;99.90;;;;;;4166192;28;20049;-82
2021/01/03 04:50:13;;;;;;;53.85;27.08;;;4.90;99.90;;;;;;4160270;28;20112;-82
2021/01/03 04:52:47;;;;;;;53.63;26.33;;;4.90;99.90;;;;;;4159227;28;20183;-82
2021/01/03 04:54:54;;;;;;;;;;;5.00;99.90;;;;;;4170234;28;20039;-82
2021/01/03 04:56:56;;;;;;;54.30;26.60;;;4.90;99.90;;;;;;4159489;28;19917;-82
2021/01/03 04:59:18;;;;;;;54.50;26.40;;;4.90;99.90;;;;;;4163377;28;20036;-82
2021/01/03 05:01:31;;;;;;;49.42;26.80;;;4.90;99.90;;;;;;4151831;28;20021;-82
2021/01/03 05:03:40;;;;;;;55.65;26.77;;;4.90;99.90;;;;;;4161006;28;20025;-82
2021/01/03 05:05:52;;;;;;;51.83;26.88;;;4.90;99.90;;;;;;4164146;28;20052;-82
2021/01/03 05:08:03;;;;;;;55.85;27.40;;;4.90;99.90;;;;;;4163630;28;20034;-82
2021/01/03 05:10:12;;;;;;;56.55;26.45;;;4.90;99.90;;;;;;4170537;28;20119;-82
2021/01/03 05:12:26;;;;;;;49.78;25.98;;;4.90;99.90;;;;;;4147582;28;20088;-82
2021/01/03 05:14:36;;;;;;;52.28;26.85;;;4.90;99.90;;;;;;4162142;28;20105;-82
2021/01/03 05:16:36;;;;;;;51.75;26.38;;;4.90;99.90;;;;;;4154871;28;20032;-82
2021/01/03 05:18:37;;;;;;;51.90;26.25;;;4.90;99.90;;;;;;4169366;28;20053;-82
2021/01/03 05:20:38;;;;;;;50.20;25.80;;;4.90;99.90;;;;;;4162858;28;20063;-82
2021/01/03 05:22:40;;;;;;;55.53;27.80;;;4.90;99.90;;;;;;4146724;28;20026;-83
2021/01/03 05:24:45;;;;;;;57.70;27.45;;;4.90;99.90;;;;;;4194429;28;20021;-83
2021/01/03 05:26:46;;;;;;;53.88;27.15;;;4.90;99.90;;;;;;4162805;28;20541;-83
2021/01/03 05:28:54;;;;;;;52.00;26.63;;;4.90;99.90;;;;;;4171120;28;20057;-83
2021/01/03 05:31:11;;;;;;;53.25;27.88;;;4.90;99.90;;;;;;4153910;28;20050;-83
2021/01/03 05:33:21;;;;;;;49.72;26.65;;;4.80;99.90;;;;;;4190780;28;20543;-83
2021/01/03 05:35:25;;;;;;;53.13;27.48;;;4.90;99.90;;;;;;4153107;28;20050;-83
2021/01/03 05:37:31;;;;;;;51.40;25.63;;;4.80;99.90;;;;;;4165177;28;20029;-82
2021/01/03 05:39:33;;;;;;;50.85;27.55;;;4.90;99.90;;;;;;4147671;28;20378;-82
2021/01/03 05:41:44;;;;;;;50.63;26.73;;;4.80;99.90;;;;;;4168767;28;20025;-82
2021/01/03 05:43:56;;;;;;;53.13;26.77;;;4.80;99.90;;;;;;4161944;28;20033;-82
2021/01/03 05:46:18;;;;;;;50.38;26.98;;;4.90;99.90;;;;;;4168120;28;20051;-82
2021/01/03 05:48:25;;;;;;;50.03;26.30;;;4.80;99.90;;;;;;4167938;28;20597;-82
2021/01/03 05:50:31;;;;;;;52.97;26.00;;;4.90;99.90;;;;;;4159233;28;20038;-82
2021/01/03 05:52:33;;;;;;;49.80;26.63;;;4.90;99.90;;;;;;4154648;28;20095;-82
2021/01/03 05:54:38;;;;;;;47.73;26.27;;;4.80;99.90;;;;;;4152930;28;20033;-82
2021/01/03 05:56:39;;;;;;;50.35;26.15;;;4.90;99.90;;;;;;4152677;28;20292;-82
2021/01/03 05:58:43;;;;;;;46.20;23.97;;;4.80;99.90;;;;;;4152216;28;20163;-82
2021/01/03 06:00:45;;;;;;;40.20;22.17;;;4.90;99.90;;;;;;4145823;28;20105;-82
2021/01/03 06:02:46;;;;;;;44.53;24.20;;;4.90;99.90;;;;;;4153678;28;20044;-82
2021/01/03 06:04:47;;;;;;;48.22;25.20;;;4.90;99.90;;;;;;4152188;28;20117;-82
2021/01/03 06:06:51;;;;;;;45.63;23.35;;;4.90;99.90;;;;;;4166351;28;20172;-82
2021/01/03 06:08:58;;;;;;;47.70;24.35;;;4.90;99.90;;;;;;4155121;28;20034;-82
2021/01/03 06:11:13;;;;;;;49.72;25.80;;;4.90;99.90;;;;;;4169222;28;20029;-82
2021/01/03 06:13:15;;;;;;;48.58;24.75;;;4.80;99.90;;;;;;4151271;28;20053;-82
2021/01/03 06:15:15;;;;;;;47.17;24.75;;;4.80;99.90;;;;;;4187950;28;20525;-82
2021/01/03 06:17:36;;;;;;;55.88;25.80;;;4.80;99.90;;;;;;4153914;28;20033;-83
2021/01/03 06:19:46;;;;;;;41.92;23.85;;;4.80;99.90;;;;;;4160213;28;20049;-83
2021/01/03 06:21:46;;;;;;;46.83;24.75;;;4.80;99.90;;;;;;4169534;28;20048;-83
2021/01/03 06:24:15;;;;;;;48.78;25.27;;;4.80;99.90;;;;;;4170008;28;20033;-83
2021/01/03 06:26:23;;;;;;;47.30;24.15;;;4.80;99.90;;;;;;4157571;28;20048;-83
2021/01/03 06:28:24;;;;;;;47.60;24.23;;;4.80;99.90;;;;;;4160575;28;20021;-83
2021/01/03 06:30:39;;;;;;;45.55;24.25;;;4.80;99.90;;;;;;4148642;28;20026;-83
2021/01/03 06:32:51;;;;;;;43.00;23.83;;;4.80;99.90;;;;;;4143874;28;20509;-83
2021/01/03 06:35:08;;;;;;;47.55;24.35;;;4.80;99.90;;;;;;4150550;28;20123;-83
2021/01/03 06:37:27;;;;;;;46.22;23.67;;;4.80;99.90;;;;;;4163517;28;20036;-83
2021/01/03 06:40:30;;;;;;;47.50;24.88;;;4.80;99.90;;;;;;4127951;28;20399;-82
2021/01/03 06:42:43;;;;;;;45.65;23.38;;;4.80;99.90;;;;;;4115965;28;20030;-82
2021/01/03 06:44:54;;;;;;;44.10;23.88;;;4.80;99.90;;;;;;4150564;28;20034;-82
2021/01/03 06:47:27;;;;;;;46.70;24.10;;;4.80;99.90;;;;;;4173770;28;20035;-82
2021/01/03 06:49:55;;;;;;;42.75;22.63;;;4.80;99.90;;;;;;4144928;28;20038;-82
2021/01/03 06:52:34;;;;;;;46.30;23.70;;;4.70;99.90;;;;;;4168355;28;20739;-82
2021/01/03 06:54:57;;;;;;;43.53;22.00;;;4.80;99.90;;;;;;4173711;28;20033;-83
2021/01/03 06:57:17;;;;;;;43.95;22.17;;;4.70;99.90;;;;;;4151169;28;20513;-82
2021/01/03 07:02:18;;;;;;;43.95;22.48;;;4.70;99.90;;;;;;4167710;28;20049;-82
2021/01/03 07:04:25;;;;;;;43.10;23.13;;;4.70;99.90;;;;;;4153574;28;20064;-82
2021/01/03 07:06:37;;;;;;;47.30;23.98;;;4.70;99.90;;;;;;4180310;28;20091;-82
2021/01/03 07:08:51;;;;;;;40.58;21.80;;;4.70;99.90;;;;;;4169241;28;20041;-83
2021/01/03 07:10:51;;;;;;;44.90;22.58;;;4.70;99.90;;;;;;4173505;28;20222;-83
2021/01/03 07:12:54;;;;;;;42.58;22.08;;;4.70;99.90;;;;;;4151791;28;20049;-83
2021/01/03 07:14:56;;;;;;;39.67;21.58;;;4.60;99.90;;;;;;4153676;28;20026;-83
2021/01/03 07:16:57;;;;;;;37.83;21.40;;;4.70;99.90;;;;;;4174839;28;20033;-83
2021/01/03 07:19:04;;;;;;;38.47;19.55;;;4.70;99.90;;;;;;4176990;28;20029;-83
2021/01/03 07:21:05;;;;;;;40.10;20.15;;;4.70;99.90;;;;;;4153040;28;20033;-83
2021/01/03 07:23:13;;;;;;;37.88;20.52;;;4.70;99.90;;;;;;4172852;28;20654;-83
2021/01/03 07:25:22;;;;;;;42.22;21.90;;;4.70;99.90;;;;;;4174891;28;20052;-83
2021/01/03 07:28:06;;;;;;;38.53;20.52;;;4.60;99.90;;;;;;4173028;28;20403;-82
2021/01/03 07:30:07;;;;;;;39.00;20.35;;;4.60;99.90;;;;;;4151633;28;20025;-83
2021/01/03 07:32:17;;;;;;;38.33;20.35;;;4.70;99.90;;;;;;4152387;28;20145;-82
2021/01/03 07:34:25;;;;;;;39.05;19.05;;;4.60;99.90;;;;;;4163994;28;20029;-82
2021/01/03 07:37:07;;;;;;;34.45;18.98;;;4.70;99.90;;;;;;4168893;28;20034;-82
2021/01/03 07:39:29;;;;;;;36.38;18.42;;;4.60;99.90;;;;;;4146320;28;20038;-82
2021/01/03 07:41:30;;;;;;;36.58;18.60;;;4.60;99.90;;;;;;4174758;28;20093;-82
2021/01/03 07:43:57;;;;;;;36.85;19.10;;;4.60;99.90;;;;;;4152569;28;20090;-82
2021/01/03 07:45:58;;;;;;;36.78;18.98;;;4.60;99.90;;;;;;4145803;28;20036;-83
2021/01/03 07:47:59;;;;;;;33.15;18.02;;;4.60;99.90;;;;;;4164212;28;20030;-82
2021/01/03 07:50:24;;;;;;;35.72;18.65;;;4.60;99.90;;;;;;4148380;28;20774;-82
2021/01/03 07:52:27;;;;;;;31.30;16.58;;;4.60;99.90;;;;;;4146797;28;20026;-82
2021/01/03 07:54:28;;;;;;;36.78;18.10;;;4.60;99.90;;;;;;4178172;28;20675;-82
2021/01/03 07:56:31;;;;;;;35.33;18.38;;;4.60;99.90;;;;;;4150642;28;20108;-82
2021/01/03 07:58:32;;;;;;;29.33;15.95;;;4.60;99.90;;;;;;4195015;28;20489;-82
2021/01/03 08:00:35;;;;;;;30.33;16.20;;;4.50;99.90;;;;;;4170604;28;20029;-82
2021/01/03 08:02:38;;;;;;;29.70;15.57;;;4.60;99.90;;;;;;4177830;28;20120;-82
2021/01/03 08:04:39;;;;;;;31.95;16.08;;;4.50;99.90;;;;;;4171582;28;20030;-82
2021/01/03 08:06:39;;;;;;;27.50;15.43;;;4.50;99.90;;;;;;4165280;28;20537;-83
2021/01/03 08:08:40;;;;;;;25.83;14.43;;;4.50;99.90;;;;;;4171255;28;20708;-82
2021/01/03 08:10:45;;;;;;;27.70;15.02;;;4.50;99.90;;;;;;4164090;28;20037;-82
2021/01/03 08:12:56;;;;;;;27.15;14.23;;;4.50;99.90;;;;;;4170124;28;20126;-82
2021/01/03 08:15:31;;;;;;;25.35;13.77;;;4.50;99.90;;;;;;4169809;28;20029;-82
2021/01/03 08:17:46;;;;;;;25.60;13.43;;;4.50;99.90;;;;;;4155889;28;20036;-82
2021/01/03 08:19:49;;;;;;;26.00;13.68;;;4.60;99.90;;;;;;4175704;28;20559;-82
2021/01/03 08:22:00;;;;;;;25.98;13.88;;;4.50;99.90;;;;;;4172665;28;20041;-82
2021/01/03 08:24:14;;;;;;;26.98;13.48;;;4.50;99.90;;;;;;4149905;28;20157;-82
2021/01/03 08:26:18;;;;;;;21.90;12.65;;;4.50;99.90;;;;;;4149483;28;20578;-82
2021/01/03 08:28:21;;;;;;;22.58;12.35;;;4.50;99.90;;;;;;4149139;28;20022;-82
2021/01/03 08:30:24;;;;;;;23.17;12.73;;;4.50;99.90;;;;;;4152362;28;20382;-82
2021/01/03 08:32:30;;;;;;;19.10;11.65;;;4.50;99.90;;;;;;4155778;28;20018;-81
2021/01/03 08:34:35;;;;;;;19.63;11.18;;;4.50;99.90;;;;;;4168079;28;20029;-81
2021/01/03 08:36:36;;;;;;;21.08;11.85;;;4.50;99.90;;;;;;4175375;28;20045;-81
2021/01/03 08:38:46;;;;;;;19.02;10.45;;;4.50;99.90;;;;;;4164635;28;20444;-82
2021/01/03 08:41:03;;;;;;;17.15;10.38;;;4.50;99.90;;;;;;4153250;28;20093;-81
2021/01/03 08:43:24;;;;;;;16.15;10.10;;;4.50;99.90;;;;;;4151453;28;20045;-81
2021/01/03 08:45:31;;;;;;;18.33;9.20;;;4.50;99.90;;;;;;4151997;28;20399;-81
2021/01/03 08:47:40;;;;;;;18.27;9.40;;;4.60;99.90;;;;;;4156850;28;20053;-81
2021/01/03 08:49:41;;;;;;;17.15;9.35;;;4.50;99.90;;;;;;4149043;28;20033;-81
2021/01/03 08:51:42;;;;;;;15.90;8.77;;;4.60;99.90;;;;;;4167475;28;20551;-81
2021/01/03 08:53:42;;;;;;;16.60;9.38;;;4.50;99.90;;;;;;4152923;28;20028;-81
2021/01/03 08:55:44;;;;;;;16.90;8.60;;;4.50;99.90;;;;;;4169343;28;20029;-81
2021/01/03 08:57:53;;;;;;;16.30;8.73;;;4.50;99.90;;;;;;4148197;28;20092;-81
2021/01/03 09:00:09;;;;;;;15.60;9.32;;;4.60;99.90;;;;;;4168531;28;20045;-81
2021/01/03 09:02:19;;;;;;;13.77;8.15;;;4.50;99.90;;;;;;4147451;28;20185;-81
2021/01/03 09:04:21;;;;;;;16.88;9.07;;;4.50;99.90;;;;;;4158694;28;20443;-81
2021/01/03 09:06:22;;;;;;;13.55;7.40;;;4.50;99.90;;;;;;4151024;28;20061;-81
2021/01/03 09:08:38;;;;;;;14.13;7.82;;;4.50;99.90;;;;;;4167078;28;20656;-81
2021/01/03 09:10:45;;;;;;;13.82;8.15;;;4.40;99.90;;;;;;4169411;28;20392;-81
2021/01/03 09:12:47;;;;;;;13.07;7.63;;;4.50;99.90;;;;;;4146284;28;20693;-81
2021/01/03 09:14:52;;;;;;;12.63;7.47;;;4.40;99.90;;;;;;4171197;28;20048;-81
2021/01/03 09:17:10;;;;;;;13.13;7.40;;;4.50;99.90;;;;;;4158924;28;20299;-81
2021/01/03 09:19:47;;;;;;;11.30;6.97;;;4.50;99.90;;;;;;4170229;28;20040;-82
2021/01/03 09:22:02;;;;;;;12.35;7.15;;;4.50;99.90;;;;;;4167706;28;20536;-82
2021/01/03 09:24:05;;;;;;;16.67;7.15;;;4.50;99.90;;;;;;4167065;28;20033;-81
2021/01/03 09:26:06;;;;;;;11.77;7.18;;;4.50;99.90;;;;;;4168468;28;20412;-81
2021/01/03 09:28:20;;;;;;;11.75;6.55;;;4.40;99.90;;;;;;4152608;28;20034;-81
2021/01/03 09:30:41;;;;;;;13.02;7.03;;;4.40;99.90;;;;;;4166708;28;20025;-81
2021/01/03 09:32:43;;;;;;;11.18;6.60;;;4.40;99.90;;;;;;4151585;28;20045;-81
2021/01/03 09:34:51;;;;;;;10.57;6.28;;;4.50;99.90;;;;;;4168037;28;20109;-83
2021/01/03 09:37:21;;;;;;;10.40;6.60;;;4.50;99.90;;;;;;4164829;28;20780;-82
2021/01/03 09:39:34;;;;;;;10.25;6.25;;;4.40;99.90;;;;;;4165693;28;20090;-82
2021/01/03 09:41:56;;;;;;;8.90;5.45;;;4.50;99.90;;;;;;4172891;28;20112;-82
2021/01/03 09:44:18;;;;;;;10.40;6.53;;;4.50;99.90;;;;;;4176237;28;20025;-83
2021/01/03 09:46:33;;;;;;;10.15;6.35;;;4.40;99.90;;;;;;4151960;28;20048;-83
2021/01/03 09:48:39;;;;;;;10.32;6.03;;;4.40;99.90;;;;;;4146661;28;20490;-83
2021/01/03 09:50:41;;;;;;;12.27;6.20;;;4.40;99.90;;;;;;4148710;28;20042;-83
2021/01/03 09:52:58;;;;;;;11.10;6.57;;;4.40;99.90;;;;;;4147425;28;20089;-83
2021/01/03 09:55:18;;;;;;;10.80;5.68;;;4.40;99.90;;;;;;4152550;28;20486;-83
2021/01/03 09:57:28;;;;;;;10.93;6.20;;;4.40;99.90;;;;;;4185958;28;20458;-83
2021/01/03 09:59:29;;;;;;;10.57;5.85;;;4.40;99.90;;;;;;4150296;28;20038;-83
2021/01/03 10:01:33;;;;;;;13.13;6.85;;;4.40;99.90;;;;;;4158151;28;20041;-82
2021/01/03 10:03:44;;;;;;;10.40;6.18;;;4.40;99.90;;;;;;4151412;28;20053;-83
2021/01/03 10:05:46;;;;;;;10.05;5.75;;;4.40;99.90;;;;;;4162287;28;20056;-83
2021/01/03 10:08:03;;;;;;;8.85;5.85;;;4.40;99.90;;;;;;4176788;28;20033;-83
2021/01/03 10:10:06;;;;;;;11.05;5.80;;;4.40;99.90;;;;;;4167425;28;20515;-83
2021/01/03 10:12:27;;;;;;;12.90;5.50;;;4.50;99.90;;;;;;4173225;28;20033;-83
2021/01/03 10:14:29;;;;;;;10.38;5.95;;;4.50;99.90;;;;;;4163879;28;20036;-83
2021/01/03 10:16:33;;;;;;;14.05;6.25;;;4.50;99.90;;;;;;4147985;28;20033;-83
2021/01/03 10:18:39;;;;;;;10.80;5.60;;;4.50;99.90;;;;;;4150798;28;20105;-82
2021/01/03 10:21:36;;;;;;;10.32;5.68;;;4.50;99.90;;;;;;4164794;28;20485;-82
2021/01/03 10:23:40;;;;;;;9.90;5.38;;;4.50;99.90;;;;;;4108283;28;20043;-83
2021/01/03 10:25:41;;;;;;;10.13;5.43;;;4.50;99.90;;;;;;4142898;28;20079;-82
2021/01/03 10:28:01;;;;;;;8.88;5.07;;;4.50;99.90;;;;;;4158058;28;20029;-82
2021/01/03 10:30:07;;;;;;;11.13;5.65;;;4.50;99.90;;;;;;4163124;28;20183;-83
2021/01/03 10:32:10;;;;;;;9.57;5.45;;;4.60;99.90;;;;;;4165389;28;20037;-83
2021/01/03 10:34:13;;;;;;;10.60;6.10;;;4.60;99.90;;;;;;4177117;28;20029;-83
2021/01/03 10:36:22;;;;;;;8.00;4.95;;;4.60;99.90;;;;;;4177277;28;20098;-83
2021/01/03 10:38:23;;;;;;;9.23;5.35;;;4.60;99.90;;;;;;4150020;28;20538;-84
2021/01/03 10:40:24;;;;;;;10.70;5.78;;;4.60;99.90;;;;;;4147896;28;20040;-83
2021/01/03 10:42:24;;;;;;;8.27;5.00;;;4.60;99.90;;;;;;4166107;28;20482;-83
2021/01/03 10:44:25;;;;;;;11.43;5.22;;;4.60;99.90;;;;;;4180703;28;20100;-83
2021/01/03 10:46:26;;;;;;;8.43;5.05;;;4.60;99.90;;;;;;4164529;28;20034;-83
2021/01/03 10:48:26;;;;;;;7.88;4.90;;;4.60;99.90;;;;;;4154136;28;20030;-83
2021/01/03 10:50:27;;;;;;;9.55;5.57;;;4.70;99.90;;;;;;4155559;28;20113;-83
2021/01/03 10:52:27;;;;;;;9.25;5.43;;;4.70;99.90;;;;;;4170231;28;20092;-83
2021/01/03 10:54:28;;;;;;;8.40;4.80;;;4.70;99.90;;;;;;4168240;28;20414;-83
2021/01/03 10:56:29;;;;;;;7.68;4.55;;;4.70;99.90;;;;;;4154021;28;20169;-83
2021/01/03 10:58:29;;;;;;;9.13;4.75;;;4.70;99.90;;;;;;4155594;28;20172;-83